sensor_id;sensor_type;location;lat;lon;timestamp;P1;durP1;ratioP1;P2;durP2;ratioP2
27706;SDS011;36332;51.384;0.040;2023-03-20T00:02:04;16.58;;;4.93;;
27706;SDS011;36332;51.384;0.040;2023-03-20T00:04:33;20.90;;;5.10;;
27706;SDS011;36332;51.384;0.040;2023-03-20T00:07:00;21.55;;;4.75;;
27706;SDS011;36332;51.384;0.040;2023-03-20T00:09:29;27.35;;;4.78;;
27706;SDS011;36332;51.384;0.040;2023-03-20T00:11:57;18.83;;;4.95;;
27706;SDS011;36332;51.384;0.040;2023-03-20T00:14:26;17.33;;;4.90;;
27706;SDS011;36332;51.384;0.040;2023-03-20T00:16:54;16.55;;;4.97;;
27706;SDS011;36332;51.384;0.040;2023-03-20T00:19:25;25.40;;;4.88;;
27706;SDS011;36332;51.384;0.040;2023-03-20T00:21:55;21.05;;;5.25;;
27706;SDS011;36332;51.384;0.040;2023-03-20T00:24:24;15.57;;;4.30;;
27706;SDS011;36332;51.384;0.040;2023-03-20T00:26:52;19.02;;;4.20;;
27706;SDS011;36332;51.384;0.040;2023-03-20T00:29:24;26.65;;;5.00;;
27706;SDS011;36332;51.384;0.040;2023-03-20T00:31:53;20.90;;;4.72;;
27706;SDS011;36332;51.384;0.040;2023-03-20T00:34:25;31.77;;;5.82;;
27706;SDS011;36332;51.384;0.040;2023-03-20T00:36:55;20.58;;;4.72;;
27706;SDS011;36332;51.384;0.040;2023-03-20T00:39:23;26.38;;;5.00;;
27706;SDS011;36332;51.384;0.040;2023-03-20T00:41:56;23.05;;;6.03;;
27706;SDS011;36332;51.384;0.040;2023-03-20T00:47:10;21.55;;;4.78;;
27706;SDS011;36332;51.384;0.040;2023-03-20T00:49:47;19.50;;;4.85;;
27706;SDS011;36332;51.384;0.040;2023-03-20T00:52:17;19.17;;;5.90;;
27706;SDS011;36332;51.384;0.040;2023-03-20T00:54:45;23.95;;;5.65;;
27706;SDS011;36332;51.384;0.040;2023-03-20T00:57:14;16.00;;;4.28;;
27706;SDS011;36332;51.384;0.040;2023-03-20T01:02:20;19.63;;;5.32;;
27706;SDS011;36332;51.384;0.040;2023-03-20T01:04:49;28.80;;;7.43;;
27706;SDS011;36332;51.384;0.040;2023-03-20T01:07:18;25.85;;;4.68;;
27706;SDS011;36332;51.384;0.040;2023-03-20T01:09:46;20.27;;;4.75;;
27706;SDS011;36332;51.384;0.040;2023-03-20T01:12:14;23.98;;;4.78;;
27706;SDS011;36332;51.384;0.040;2023-03-20T01:14:42;20.38;;;6.00;;
27706;SDS011;36332;51.384;0.040;2023-03-20T01:17:20;34.10;;;5.90;;
27706;SDS011;36332;51.384;0.040;2023-03-20T01:19:50;23.45;;;4.88;;
27706;SDS011;36332;51.384;0.040;2023-03-20T01:22:18;28.30;;;6.85;;
27706;SDS011;36332;51.384;0.040;2023-03-20T01:24:45;18.15;;;4.18;;
27706;SDS011;36332;51.384;0.040;2023-03-20T01:27:14;17.77;;;4.63;;
27706;SDS011;36332;51.384;0.040;2023-03-20T01:29:44;18.67;;;4.72;;
27706;SDS011;36332;51.384;0.040;2023-03-20T01:32:14;19.27;;;4.13;;
27706;SDS011;36332;51.384;0.040;2023-03-20T01:34:47;19.70;;;4.13;;
27706;SDS011;36332;51.384;0.040;2023-03-20T01:37:22;22.58;;;4.53;;
27706;SDS011;36332;51.384;0.040;2023-03-20T01:39:52;24.23;;;5.70;;
27706;SDS011;36332;51.384;0.040;2023-03-20T01:42:22;21.85;;;3.90;;
27706;SDS011;36332;51.384;0.040;2023-03-20T01:44:49;26.00;;;4.72;;
27706;SDS011;36332;51.384;0.040;2023-03-20T01:47:19;23.35;;;4.10;;
27706;SDS011;36332;51.384;0.040;2023-03-20T01:52:38;23.17;;;5.30;;
27706;SDS011;36332;51.384;0.040;2023-03-20T01:55:06;24.67;;;3.97;;
27706;SDS011;36332;51.384;0.040;2023-03-20T01:57:35;25.70;;;4.63;;
27706;SDS011;36332;51.384;0.040;2023-03-20T02:00:04;17.55;;;3.45;;
27706;SDS011;36332;51.384;0.040;2023-03-20T02:02:43;24.67;;;4.50;;
27706;SDS011;36332;51.384;0.040;2023-03-20T02:05:19;17.27;;;3.88;;
27706;SDS011;36332;51.384;0.040;2023-03-20T02:07:52;19.65;;;5.13;;
27706;SDS011;36332;51.384;0.040;2023-03-20T02:10:25;24.83;;;5.45;;
27706;SDS011;36332;51.384;0.040;2023-03-20T02:13:05;28.35;;;4.22;;
27706;SDS011;36332;51.384;0.040;2023-03-20T02:18:51;34.10;;;5.32;;
27706;SDS011;36332;51.384;0.040;2023-03-20T02:35:54;20.13;;;4.53;;
27706;SDS011;36332;51.384;0.040;2023-03-20T02:44:32;25.80;;;4.20;;
27706;SDS011;36332;51.384;0.040;2023-03-20T02:47:29;19.58;;;3.92;;
27706;SDS011;36332;51.384;0.040;2023-03-20T02:50:26;25.15;;;4.13;;
27706;SDS011;36332;51.384;0.040;2023-03-20T02:55:58;10.60;;;3.22;;
27706;SDS011;36332;51.384;0.040;2023-03-20T02:58:37;27.52;;;4.25;;
27706;SDS011;36332;51.384;0.040;2023-03-20T03:01:09;19.50;;;3.67;;
27706;SDS011;36332;51.384;0.040;2023-03-20T03:03:49;23.42;;;4.43;;
27706;SDS011;36332;51.384;0.040;2023-03-20T03:06:35;22.08;;;4.25;;
27706;SDS011;36332;51.384;0.040;2023-03-20T03:11:42;20.15;;;4.95;;
27706;SDS011;36332;51.384;0.040;2023-03-20T03:14:29;22.85;;;4.32;;
27706;SDS011;36332;51.384;0.040;2023-03-20T03:17:06;33.88;;;4.45;;
27706;SDS011;36332;51.384;0.040;2023-03-20T03:19:36;28.02;;;5.35;;
27706;SDS011;36332;51.384;0.040;2023-03-20T03:22:05;31.67;;;5.60;;
27706;SDS011;36332;51.384;0.040;2023-03-20T03:24:34;22.17;;;4.80;;
27706;SDS011;36332;51.384;0.040;2023-03-20T03:27:14;26.00;;;5.25;;
27706;SDS011;36332;51.384;0.040;2023-03-20T03:29:54;34.63;;;5.40;;
27706;SDS011;36332;51.384;0.040;2023-03-20T03:32:32;36.33;;;4.38;;
27706;SDS011;36332;51.384;0.040;2023-03-20T03:35:10;16.73;;;3.53;;
27706;SDS011;36332;51.384;0.040;2023-03-20T03:41:01;32.55;;;4.20;;
27706;SDS011;36332;51.384;0.040;2023-03-20T03:43:32;26.25;;;3.70;;
27706;SDS011;36332;51.384;0.040;2023-03-20T03:46:07;19.33;;;4.65;;
27706;SDS011;36332;51.384;0.040;2023-03-20T03:48:44;26.35;;;3.92;;
27706;SDS011;36332;51.384;0.040;2023-03-20T03:51:17;24.42;;;4.05;;
27706;SDS011;36332;51.384;0.040;2023-03-20T03:54:05;32.20;;;4.85;;
27706;SDS011;36332;51.384;0.040;2023-03-20T03:56:37;30.17;;;4.97;;
27706;SDS011;36332;51.384;0.040;2023-03-20T03:59:12;17.38;;;3.50;;
27706;SDS011;36332;51.384;0.040;2023-03-20T04:01:56;25.75;;;4.13;;
27706;SDS011;36332;51.384;0.040;2023-03-20T04:04:25;21.60;;;3.92;;
27706;SDS011;36332;51.384;0.040;2023-03-20T04:06:55;36.45;;;5.72;;
27706;SDS011;36332;51.384;0.040;2023-03-20T04:09:22;29.15;;;4.70;;
27706;SDS011;36332;51.384;0.040;2023-03-20T04:11:50;26.48;;;3.75;;
27706;SDS011;36332;51.384;0.040;2023-03-20T04:14:19;34.17;;;4.25;;
27706;SDS011;36332;51.384;0.040;2023-03-20T04:16:47;20.98;;;3.53;;
27706;SDS011;36332;51.384;0.040;2023-03-20T04:19:14;28.23;;;6.35;;
27706;SDS011;36332;51.384;0.040;2023-03-20T04:21:44;26.60;;;4.22;;
27706;SDS011;36332;51.384;0.040;2023-03-20T04:24:12;19.38;;;4.07;;
27706;SDS011;36332;51.384;0.040;2023-03-20T04:26:41;24.33;;;4.00;;
27706;SDS011;36332;51.384;0.040;2023-03-20T04:29:09;18.75;;;3.45;;
27706;SDS011;36332;51.384;0.040;2023-03-20T04:31:47;19.30;;;3.50;;
27706;SDS011;36332;51.384;0.040;2023-03-20T04:34:22;22.98;;;4.35;;
27706;SDS011;36332;51.384;0.040;2023-03-20T04:37:03;36.42;;;3.90;;
27706;SDS011;36332;51.384;0.040;2023-03-20T04:39:47;19.85;;;3.65;;
27706;SDS011;36332;51.384;0.040;2023-03-20T04:42:15;21.25;;;4.20;;
27706;SDS011;36332;51.384;0.040;2023-03-20T04:44:43;25.23;;;4.07;;
27706;SDS011;36332;51.384;0.040;2023-03-20T04:47:11;26.17;;;4.50;;
27706;SDS011;36332;51.384;0.040;2023-03-20T04:49:41;41.28;;;3.85;;
27706;SDS011;36332;51.384;0.040;2023-03-20T04:52:09;18.48;;;3.20;;
27706;SDS011;36332;51.384;0.040;2023-03-20T04:54:41;25.45;;;4.28;;
27706;SDS011;36332;51.384;0.040;2023-03-20T04:57:11;21.73;;;5.63;;
27706;SDS011;36332;51.384;0.040;2023-03-20T04:59:39;16.88;;;4.00;;
27706;SDS011;36332;51.384;0.040;2023-03-20T05:02:07;27.45;;;3.92;;
27706;SDS011;36332;51.384;0.040;2023-03-20T05:04:35;20.92;;;3.38;;
27706;SDS011;36332;51.384;0.040;2023-03-20T05:07:03;23.00;;;4.25;;
27706;SDS011;36332;51.384;0.040;2023-03-20T05:09:38;23.08;;;3.83;;
27706;SDS011;36332;51.384;0.040;2023-03-20T05:12:07;16.63;;;3.30;;
27706;SDS011;36332;51.384;0.040;2023-03-20T05:14:42;21.65;;;4.70;;
27706;SDS011;36332;51.384;0.040;2023-03-20T05:17:28;19.02;;;3.75;;
27706;SDS011;36332;51.384;0.040;2023-03-20T05:20:24;21.50;;;3.33;;
27706;SDS011;36332;51.384;0.040;2023-03-20T05:23:14;22.38;;;3.85;;
27706;SDS011;36332;51.384;0.040;2023-03-20T05:25:44;33.10;;;4.05;;
27706;SDS011;36332;51.384;0.040;2023-03-20T05:28:18;23.90;;;4.13;;
27706;SDS011;36332;51.384;0.040;2023-03-20T05:31:07;30.63;;;4.72;;
27706;SDS011;36332;51.384;0.040;2023-03-20T05:33:50;30.15;;;5.63;;
27706;SDS011;36332;51.384;0.040;2023-03-20T05:36:37;25.45;;;3.65;;
27706;SDS011;36332;51.384;0.040;2023-03-20T05:39:22;18.67;;;3.13;;
27706;SDS011;36332;51.384;0.040;2023-03-20T05:42:13;15.75;;;4.13;;
27706;SDS011;36332;51.384;0.040;2023-03-20T05:45:09;30.73;;;4.53;;
27706;SDS011;36332;51.384;0.040;2023-03-20T05:47:56;27.38;;;4.22;;
27706;SDS011;36332;51.384;0.040;2023-03-20T05:50:26;29.50;;;5.35;;
27706;SDS011;36332;51.384;0.040;2023-03-20T05:53:14;28.88;;;4.20;;
27706;SDS011;36332;51.384;0.040;2023-03-20T05:56:05;26.58;;;3.75;;
27706;SDS011;36332;51.384;0.040;2023-03-20T05:58:39;27.70;;;4.63;;
27706;SDS011;36332;51.384;0.040;2023-03-20T06:01:27;28.55;;;4.40;;
27706;SDS011;36332;51.384;0.040;2023-03-20T06:04:18;32.03;;;6.80;;
27706;SDS011;36332;51.384;0.040;2023-03-20T06:07:05;36.10;;;4.53;;
27706;SDS011;36332;51.384;0.040;2023-03-20T06:09:34;23.05;;;5.57;;
27706;SDS011;36332;51.384;0.040;2023-03-20T06:12:07;26.02;;;4.57;;
27706;SDS011;36332;51.384;0.040;2023-03-20T06:14:34;28.95;;;4.35;;
27706;SDS011;36332;51.384;0.040;2023-03-20T06:17:05;30.45;;;4.80;;
27706;SDS011;36332;51.384;0.040;2023-03-20T06:19:34;26.92;;;5.60;;
27706;SDS011;36332;51.384;0.040;2023-03-20T06:22:03;18.45;;;4.03;;
27706;SDS011;36332;51.384;0.040;2023-03-20T06:24:31;24.30;;;4.43;;
27706;SDS011;36332;51.384;0.040;2023-03-20T06:26:59;29.40;;;4.95;;
27706;SDS011;36332;51.384;0.040;2023-03-20T06:29:28;27.80;;;5.35;;
27706;SDS011;36332;51.384;0.040;2023-03-20T06:32:08;30.05;;;5.72;;
27706;SDS011;36332;51.384;0.040;2023-03-20T06:34:37;35.53;;;5.18;;
27706;SDS011;36332;51.384;0.040;2023-03-20T06:37:05;37.35;;;5.25;;
27706;SDS011;36332;51.384;0.040;2023-03-20T06:39:33;33.90;;;6.72;;
27706;SDS011;36332;51.384;0.040;2023-03-20T06:42:01;28.55;;;5.05;;
27706;SDS011;36332;51.384;0.040;2023-03-20T06:44:29;25.73;;;5.20;;
27706;SDS011;36332;51.384;0.040;2023-03-20T06:47:34;23.48;;;4.68;;
27706;SDS011;36332;51.384;0.040;2023-03-20T06:50:02;39.83;;;6.85;;
27706;SDS011;36332;51.384;0.040;2023-03-20T06:52:31;44.22;;;5.65;;
27706;SDS011;36332;51.384;0.040;2023-03-20T06:55:20;39.22;;;6.07;;
27706;SDS011;36332;51.384;0.040;2023-03-20T06:57:47;36.55;;;6.00;;
27706;SDS011;36332;51.384;0.040;2023-03-20T07:00:16;26.45;;;5.43;;
27706;SDS011;36332;51.384;0.040;2023-03-20T07:02:46;25.20;;;6.28;;
27706;SDS011;36332;51.384;0.040;2023-03-20T07:05:15;36.00;;;5.93;;
27706;SDS011;36332;51.384;0.040;2023-03-20T07:07:44;37.47;;;6.15;;
27706;SDS011;36332;51.384;0.040;2023-03-20T07:10:12;39.53;;;5.70;;
27706;SDS011;36332;51.384;0.040;2023-03-20T07:12:46;34.13;;;7.72;;
27706;SDS011;36332;51.384;0.040;2023-03-20T07:15:14;35.03;;;5.70;;
27706;SDS011;36332;51.384;0.040;2023-03-20T07:17:42;43.13;;;6.35;;
27706;SDS011;36332;51.384;0.040;2023-03-20T07:20:10;30.70;;;5.60;;
27706;SDS011;36332;51.384;0.040;2023-03-20T07:22:39;22.67;;;4.93;;
27706;SDS011;36332;51.384;0.040;2023-03-20T07:25:15;32.42;;;5.50;;
27706;SDS011;36332;51.384;0.040;2023-03-20T07:27:53;21.95;;;5.72;;
27706;SDS011;36332;51.384;0.040;2023-03-20T07:30:24;50.25;;;6.50;;
27706;SDS011;36332;51.384;0.040;2023-03-20T07:32:53;29.15;;;5.93;;
27706;SDS011;36332;51.384;0.040;2023-03-20T07:35:24;22.25;;;4.95;;
27706;SDS011;36332;51.384;0.040;2023-03-20T07:37:51;26.67;;;4.85;;
27706;SDS011;36332;51.384;0.040;2023-03-20T07:40:19;19.05;;;4.88;;
27706;SDS011;36332;51.384;0.040;2023-03-20T07:45:41;20.63;;;5.13;;
27706;SDS011;36332;51.384;0.040;2023-03-20T07:48:09;29.80;;;5.57;;
27706;SDS011;36332;51.384;0.040;2023-03-20T07:50:37;15.88;;;4.53;;
27706;SDS011;36332;51.384;0.040;2023-03-20T07:53:04;12.40;;;4.80;;
27706;SDS011;36332;51.384;0.040;2023-03-20T07:55:32;17.58;;;6.22;;
27706;SDS011;36332;51.384;0.040;2023-03-20T07:57:59;16.73;;;4.60;;
27706;SDS011;36332;51.384;0.040;2023-03-20T08:00:27;23.38;;;5.97;;
27706;SDS011;36332;51.384;0.040;2023-03-20T08:02:54;28.92;;;6.22;;
27706;SDS011;36332;51.384;0.040;2023-03-20T08:05:23;15.82;;;4.90;;
27706;SDS011;36332;51.384;0.040;2023-03-20T08:07:52;19.55;;;6.78;;
27706;SDS011;36332;51.384;0.040;2023-03-20T08:10:19;22.38;;;5.95;;
27706;SDS011;36332;51.384;0.040;2023-03-20T08:12:47;22.52;;;5.60;;
27706;SDS011;36332;51.384;0.040;2023-03-20T08:15:15;23.42;;;6.15;;
27706;SDS011;36332;51.384;0.040;2023-03-20T08:17:43;14.30;;;6.20;;
27706;SDS011;36332;51.384;0.040;2023-03-20T08:20:12;26.67;;;6.22;;
27706;SDS011;36332;51.384;0.040;2023-03-20T08:22:41;20.92;;;6.75;;
27706;SDS011;36332;51.384;0.040;2023-03-20T08:25:10;17.70;;;7.30;;
27706;SDS011;36332;51.384;0.040;2023-03-20T08:27:38;23.75;;;7.13;;
27706;SDS011;36332;51.384;0.040;2023-03-20T08:30:06;17.92;;;6.82;;
27706;SDS011;36332;51.384;0.040;2023-03-20T08:32:35;19.60;;;7.38;;
27706;SDS011;36332;51.384;0.040;2023-03-20T08:35:03;16.65;;;7.07;;
27706;SDS011;36332;51.384;0.040;2023-03-20T08:37:31;17.95;;;7.88;;
27706;SDS011;36332;51.384;0.040;2023-03-20T08:39:59;26.38;;;8.05;;
27706;SDS011;36332;51.384;0.040;2023-03-20T08:42:26;28.65;;;9.13;;
27706;SDS011;36332;51.384;0.040;2023-03-20T08:44:54;26.13;;;9.05;;
27706;SDS011;36332;51.384;0.040;2023-03-20T08:47:22;19.40;;;7.85;;
27706;SDS011;36332;51.384;0.040;2023-03-20T08:49:50;25.92;;;7.40;;
27706;SDS011;36332;51.384;0.040;2023-03-20T08:52:18;17.23;;;7.32;;
27706;SDS011;36332;51.384;0.040;2023-03-20T08:54:45;21.00;;;8.02;;
27706;SDS011;36332;51.384;0.040;2023-03-20T08:57:13;19.17;;;6.95;;
27706;SDS011;36332;51.384;0.040;2023-03-20T08:59:40;25.67;;;8.57;;
27706;SDS011;36332;51.384;0.040;2023-03-20T09:02:09;21.02;;;7.50;;
27706;SDS011;36332;51.384;0.040;2023-03-20T09:04:37;14.57;;;7.00;;
27706;SDS011;36332;51.384;0.040;2023-03-20T09:07:05;20.08;;;7.03;;
27706;SDS011;36332;51.384;0.040;2023-03-20T09:09:33;19.73;;;6.78;;
27706;SDS011;36332;51.384;0.040;2023-03-20T09:12:00;24.25;;;6.57;;
27706;SDS011;36332;51.384;0.040;2023-03-20T09:14:28;11.07;;;5.53;;
27706;SDS011;36332;51.384;0.040;2023-03-20T09:16:55;16.40;;;5.88;;
27706;SDS011;36332;51.384;0.040;2023-03-20T09:19:23;10.80;;;3.75;;
27706;SDS011;36332;51.384;0.040;2023-03-20T09:21:50;13.57;;;4.85;;
27706;SDS011;36332;51.384;0.040;2023-03-20T09:24:18;7.18;;;3.42;;
27706;SDS011;36332;51.384;0.040;2023-03-20T09:26:45;14.40;;;3.80;;
27706;SDS011;36332;51.384;0.040;2023-03-20T09:29:13;12.50;;;3.65;;
27706;SDS011;36332;51.384;0.040;2023-03-20T09:31:40;5.68;;;2.85;;
27706;SDS011;36332;51.384;0.040;2023-03-20T09:34:08;11.48;;;3.45;;
27706;SDS011;36332;51.384;0.040;2023-03-20T09:36:36;9.45;;;3.50;;
27706;SDS011;36332;51.384;0.040;2023-03-20T09:39:03;12.13;;;3.38;;
27706;SDS011;36332;51.384;0.040;2023-03-20T09:41:31;6.93;;;3.30;;
27706;SDS011;36332;51.384;0.040;2023-03-20T09:44:43;10.27;;;4.25;;
27706;SDS011;36332;51.384;0.040;2023-03-20T09:47:21;14.10;;;4.60;;
27706;SDS011;36332;51.384;0.040;2023-03-20T09:50:01;6.75;;;3.63;;
27706;SDS011;36332;51.384;0.040;2023-03-20T09:52:53;9.20;;;3.75;;
27706;SDS011;36332;51.384;0.040;2023-03-20T09:56:01;7.53;;;3.08;;
27706;SDS011;36332;51.384;0.040;2023-03-20T09:58:30;8.75;;;3.40;;
27706;SDS011;36332;51.384;0.040;2023-03-20T10:01:00;6.10;;;3.00;;
27706;SDS011;36332;51.384;0.040;2023-03-20T10:06:16;9.32;;;3.40;;
27706;SDS011;36332;51.384;0.040;2023-03-20T10:08:44;4.45;;;2.85;;
27706;SDS011;36332;51.384;0.040;2023-03-20T10:19:26;10.07;;;2.55;;
27706;SDS011;36332;51.384;0.040;2023-03-20T10:25:07;6.47;;;2.33;;
27706;SDS011;36332;51.384;0.040;2023-03-20T10:28:05;4.72;;;2.75;;
27706;SDS011;36332;51.384;0.040;2023-03-20T10:41:54;4.22;;;2.20;;
27706;SDS011;36332;51.384;0.040;2023-03-20T10:46:55;6.43;;;2.60;;
27706;SDS011;36332;51.384;0.040;2023-03-20T10:52:01;5.57;;;3.08;;
27706;SDS011;36332;51.384;0.040;2023-03-20T10:57:02;5.20;;;2.53;;
27706;SDS011;36332;51.384;0.040;2023-03-20T10:59:39;4.00;;;2.70;;
27706;SDS011;36332;51.384;0.040;2023-03-20T11:02:12;6.68;;;2.45;;
27706;SDS011;36332;51.384;0.040;2023-03-20T11:04:41;4.22;;;2.17;;
27706;SDS011;36332;51.384;0.040;2023-03-20T11:12:33;8.25;;;2.75;;
27706;SDS011;36332;51.384;0.040;2023-03-20T11:15:13;4.68;;;2.17;;
27706;SDS011;36332;51.384;0.040;2023-03-20T11:18:02;4.65;;;2.00;;
27706;SDS011;36332;51.384;0.040;2023-03-20T11:20:39;2.55;;;2.35;;
27706;SDS011;36332;51.384;0.040;2023-03-20T11:23:26;3.92;;;2.00;;
27706;SDS011;36332;51.384;0.040;2023-03-20T11:26:04;2.70;;;1.90;;
27706;SDS011;36332;51.384;0.040;2023-03-20T11:28:37;3.55;;;1.90;;
27706;SDS011;36332;51.384;0.040;2023-03-20T11:31:15;5.38;;;1.95;;
27706;SDS011;36332;51.384;0.040;2023-03-20T11:33:49;4.70;;;2.13;;
27706;SDS011;36332;51.384;0.040;2023-03-20T11:36:26;4.88;;;2.00;;
27706;SDS011;36332;51.384;0.040;2023-03-20T11:41:33;2.72;;;2.10;;
27706;SDS011;36332;51.384;0.040;2023-03-20T11:44:25;2.85;;;1.88;;
27706;SDS011;36332;51.384;0.040;2023-03-20T11:46:53;5.35;;;2.25;;
27706;SDS011;36332;51.384;0.040;2023-03-20T11:49:49;2.65;;;2.08;;
27706;SDS011;36332;51.384;0.040;2023-03-20T11:52:23;4.03;;;2.28;;
27706;SDS011;36332;51.384;0.040;2023-03-20T11:54:59;3.60;;;2.50;;
27706;SDS011;36332;51.384;0.040;2023-03-20T11:57:39;5.47;;;2.38;;
27706;SDS011;36332;51.384;0.040;2023-03-20T12:02:41;7.53;;;2.65;;
27706;SDS011;36332;51.384;0.040;2023-03-20T12:08:23;7.75;;;3.10;;
27706;SDS011;36332;51.384;0.040;2023-03-20T12:10:52;5.13;;;3.33;;
27706;SDS011;36332;51.384;0.040;2023-03-20T12:13:26;3.53;;;2.70;;
27706;SDS011;36332;51.384;0.040;2023-03-20T12:16:03;7.28;;;3.45;;
27706;SDS011;36332;51.384;0.040;2023-03-20T12:18:37;5.32;;;2.90;;
27706;SDS011;36332;51.384;0.040;2023-03-20T12:21:11;4.75;;;3.63;;
27706;SDS011;36332;51.384;0.040;2023-03-20T12:26:38;5.15;;;2.40;;
27706;SDS011;36332;51.384;0.040;2023-03-20T12:29:35;8.77;;;4.50;;
27706;SDS011;36332;51.384;0.040;2023-03-20T12:34:51;5.38;;;3.50;;
27706;SDS011;36332;51.384;0.040;2023-03-20T12:39:54;7.32;;;4.28;;
27706;SDS011;36332;51.384;0.040;2023-03-20T12:45:12;6.90;;;4.18;;
27706;SDS011;36332;51.384;0.040;2023-03-20T12:50:30;7.65;;;4.70;;
27706;SDS011;36332;51.384;0.040;2023-03-20T12:55:46;6.88;;;4.45;;
27706;SDS011;36332;51.384;0.040;2023-03-20T13:00:57;9.23;;;5.22;;
27706;SDS011;36332;51.384;0.040;2023-03-20T13:04:05;10.95;;;5.75;;
27706;SDS011;36332;51.384;0.040;2023-03-20T13:06:53;11.68;;;6.30;;
27706;SDS011;36332;51.384;0.040;2023-03-20T13:20:19;12.82;;;5.97;;
27706;SDS011;36332;51.384;0.040;2023-03-20T13:34:04;7.55;;;4.32;;
27706;SDS011;36332;51.384;0.040;2023-03-20T13:40:17;12.55;;;4.75;;
27706;SDS011;36332;51.384;0.040;2023-03-20T13:45:47;14.68;;;6.13;;
27706;SDS011;36332;51.384;0.040;2023-03-20T13:48:31;9.48;;;3.67;;
27706;SDS011;36332;51.384;0.040;2023-03-20T13:57:00;4.70;;;3.15;;
27706;SDS011;36332;51.384;0.040;2023-03-20T14:02:59;8.13;;;3.10;;
27706;SDS011;36332;51.384;0.040;2023-03-20T14:05:43;6.97;;;3.22;;
27706;SDS011;36332;51.384;0.040;2023-03-20T14:08:46;6.50;;;3.03;;
27706;SDS011;36332;51.384;0.040;2023-03-20T14:13:36;7.68;;;2.72;;
27706;SDS011;36332;51.384;0.040;2023-03-20T14:16:08;5.43;;;2.72;;
27706;SDS011;36332;51.384;0.040;2023-03-20T14:18:39;4.22;;;2.72;;
27706;SDS011;36332;51.384;0.040;2023-03-20T14:21:13;5.47;;;2.60;;
27706;SDS011;36332;51.384;0.040;2023-03-20T14:23:49;4.32;;;2.70;;
27706;SDS011;36332;51.384;0.040;2023-03-20T14:26:31;5.55;;;3.17;;
27706;SDS011;36332;51.384;0.040;2023-03-20T14:31:36;3.25;;;2.03;;
27706;SDS011;36332;51.384;0.040;2023-03-20T14:45:42;4.95;;;3.28;;
27706;SDS011;36332;51.384;0.040;2023-03-20T14:47:52;3.55;;;3.10;;
27706;SDS011;36332;51.384;0.040;2023-03-20T15:04:04;2.75;;;2.55;;
27706;SDS011;36332;51.384;0.040;2023-03-20T15:06:41;2.85;;;2.35;;
27706;SDS011;36332;51.384;0.040;2023-03-20T15:09:13;3.40;;;3.10;;
27706;SDS011;36332;51.384;0.040;2023-03-20T15:11:41;7.97;;;2.80;;
27706;SDS011;36332;51.384;0.040;2023-03-20T15:14:10;3.85;;;2.10;;
27706;SDS011;36332;51.384;0.040;2023-03-20T15:16:47;3.22;;;1.60;;
27706;SDS011;36332;51.384;0.040;2023-03-20T15:21:51;2.78;;;1.65;;
27706;SDS011;36332;51.384;0.040;2023-03-20T15:26:53;3.35;;;2.10;;
27706;SDS011;36332;51.384;0.040;2023-03-20T15:29:24;3.10;;;2.30;;
27706;SDS011;36332;51.384;0.040;2023-03-20T15:31:53;3.78;;;2.13;;
27706;SDS011;36332;51.384;0.040;2023-03-20T15:34:39;5.07;;;2.40;;
27706;SDS011;36332;51.384;0.040;2023-03-20T15:37:09;3.03;;;2.25;;
27706;SDS011;36332;51.384;0.040;2023-03-20T15:39:42;2.25;;;1.73;;
27706;SDS011;36332;51.384;0.040;2023-03-20T15:42:13;5.22;;;2.72;;
27706;SDS011;36332;51.384;0.040;2023-03-20T15:44:44;3.97;;;2.75;;
27706;SDS011;36332;51.384;0.040;2023-03-20T15:47:15;3.70;;;2.38;;
27706;SDS011;36332;51.384;0.040;2023-03-20T15:49:51;3.78;;;2.35;;
27706;SDS011;36332;51.384;0.040;2023-03-20T15:52:25;3.28;;;2.40;;
27706;SDS011;36332;51.384;0.040;2023-03-20T15:54:56;3.28;;;2.58;;
27706;SDS011;36332;51.384;0.040;2023-03-20T15:57:30;2.53;;;2.25;;
27706;SDS011;36332;51.384;0.040;2023-03-20T16:00:04;4.43;;;2.42;;
27706;SDS011;36332;51.384;0.040;2023-03-20T16:02:36;4.97;;;3.00;;
27706;SDS011;36332;51.384;0.040;2023-03-20T16:05:03;3.97;;;2.70;;
27706;SDS011;36332;51.384;0.040;2023-03-20T16:07:36;4.88;;;3.35;;
27706;SDS011;36332;51.384;0.040;2023-03-20T16:10:15;5.75;;;2.75;;
27706;SDS011;36332;51.384;0.040;2023-03-20T16:12:57;4.20;;;2.60;;
27706;SDS011;36332;51.384;0.040;2023-03-20T16:15:26;2.30;;;2.10;;
27706;SDS011;36332;51.384;0.040;2023-03-20T16:17:58;3.38;;;2.50;;
27706;SDS011;36332;51.384;0.040;2023-03-20T16:20:32;5.07;;;2.22;;
27706;SDS011;36332;51.384;0.040;2023-03-20T16:23:08;3.00;;;2.38;;
27706;SDS011;36332;51.384;0.040;2023-03-20T16:25:36;5.70;;;2.53;;
27706;SDS011;36332;51.384;0.040;2023-03-20T16:28:04;3.28;;;2.08;;
27706;SDS011;36332;51.384;0.040;2023-03-20T16:30:35;3.80;;;2.67;;
27706;SDS011;36332;51.384;0.040;2023-03-20T16:33:13;3.97;;;2.58;;
27706;SDS011;36332;51.384;0.040;2023-03-20T16:35:53;4.00;;;2.53;;
27706;SDS011;36332;51.384;0.040;2023-03-20T16:38:22;4.10;;;2.42;;
27706;SDS011;36332;51.384;0.040;2023-03-20T16:40:56;4.15;;;2.22;;
27706;SDS011;36332;51.384;0.040;2023-03-20T16:43:44;7.55;;;2.47;;
27706;SDS011;36332;51.384;0.040;2023-03-20T16:46:22;3.50;;;2.65;;
27706;SDS011;36332;51.384;0.040;2023-03-20T16:48:56;6.38;;;2.22;;
27706;SDS011;36332;51.384;0.040;2023-03-20T16:51:41;7.45;;;3.30;;
27706;SDS011;36332;51.384;0.040;2023-03-20T16:54:12;2.55;;;2.20;;
27706;SDS011;36332;51.384;0.040;2023-03-20T16:56:50;7.97;;;3.30;;
27706;SDS011;36332;51.384;0.040;2023-03-20T16:59:19;6.13;;;2.78;;
27706;SDS011;36332;51.384;0.040;2023-03-20T17:01:49;6.55;;;2.60;;
27706;SDS011;36332;51.384;0.040;2023-03-20T17:04:21;7.82;;;2.90;;
27706;SDS011;36332;51.384;0.040;2023-03-20T17:06:52;4.00;;;2.47;;
27706;SDS011;36332;51.384;0.040;2023-03-20T17:09:25;3.28;;;2.63;;
27706;SDS011;36332;51.384;0.040;2023-03-20T17:12:03;5.82;;;2.72;;
27706;SDS011;36332;51.384;0.040;2023-03-20T17:14:31;3.35;;;2.30;;
27706;SDS011;36332;51.384;0.040;2023-03-20T17:17:00;4.30;;;2.20;;
27706;SDS011;36332;51.384;0.040;2023-03-20T17:19:27;3.90;;;2.60;;
27706;SDS011;36332;51.384;0.040;2023-03-20T17:21:58;7.65;;;3.10;;
27706;SDS011;36332;51.384;0.040;2023-03-20T17:24:29;5.05;;;2.78;;
27706;SDS011;36332;51.384;0.040;2023-03-20T17:26:57;7.22;;;2.60;;
27706;SDS011;36332;51.384;0.040;2023-03-20T17:29:24;3.17;;;2.20;;
27706;SDS011;36332;51.384;0.040;2023-03-20T17:31:52;2.90;;;2.13;;
27706;SDS011;36332;51.384;0.040;2023-03-20T17:34:20;3.35;;;2.95;;
27706;SDS011;36332;51.384;0.040;2023-03-20T17:36:48;2.55;;;2.35;;
27706;SDS011;36332;51.384;0.040;2023-03-20T17:39:17;2.72;;;2.00;;
27706;SDS011;36332;51.384;0.040;2023-03-20T17:41:46;3.13;;;1.92;;
27706;SDS011;36332;51.384;0.040;2023-03-20T17:44:14;5.07;;;1.90;;
27706;SDS011;36332;51.384;0.040;2023-03-20T17:46:41;2.80;;;1.90;;
27706;SDS011;36332;51.384;0.040;2023-03-20T17:49:24;4.22;;;2.00;;
27706;SDS011;36332;51.384;0.040;2023-03-20T17:51:53;3.28;;;1.70;;
27706;SDS011;36332;51.384;0.040;2023-03-20T17:54:21;5.20;;;2.00;;
27706;SDS011;36332;51.384;0.040;2023-03-20T17:56:49;1.95;;;1.77;;
27706;SDS011;36332;51.384;0.040;2023-03-20T17:59:16;2.58;;;2.03;;
27706;SDS011;36332;51.384;0.040;2023-03-20T18:01:44;2.92;;;2.03;;
27706;SDS011;36332;51.384;0.040;2023-03-20T18:04:12;2.95;;;1.70;;
27706;SDS011;36332;51.384;0.040;2023-03-20T18:06:39;2.30;;;1.80;;
27706;SDS011;36332;51.384;0.040;2023-03-20T18:09:09;1.83;;;1.70;;
27706;SDS011;36332;51.384;0.040;2023-03-20T18:11:39;1.58;;;1.48;;
27706;SDS011;36332;51.384;0.040;2023-03-20T18:14:07;1.92;;;1.50;;
27706;SDS011;36332;51.384;0.040;2023-03-20T18:16:34;2.00;;;1.45;;
27706;SDS011;36332;51.384;0.040;2023-03-20T18:19:02;4.47;;;1.73;;